sensor_id;sensor_type;location;lat;lon;timestamp;P1;durP1;ratioP1;P2;durP2;ratioP2
3433;SDS011;1730;41.932;25.548;2023-03-31T00:01:15;3.27;;;3.07;;
3433;SDS011;1730;41.932;25.548;2023-03-31T00:03:41;4.17;;;3.70;;
3433;SDS011;1730;41.932;25.548;2023-03-31T00:06:08;4.20;;;3.87;;
3433;SDS011;1730;41.932;25.548;2023-03-31T00:08:36;6.70;;;4.53;;
3433;SDS011;1730;41.932;25.548;2023-03-31T00:11:04;4.53;;;4.23;;
3433;SDS011;1730;41.932;25.548;2023-03-31T00:13:34;8.67;;;5.40;;
3433;SDS011;1730;41.932;25.548;2023-03-31T00:16:05;5.40;;;4.07;;
3433;SDS011;1730;41.932;25.548;2023-03-31T00:18:32;10.10;;;3.70;;
3433;SDS011;1730;41.932;25.548;2023-03-31T00:21:04;5.90;;;4.00;;
3433;SDS011;1730;41.932;25.548;2023-03-31T00:23:49;4.07;;;3.67;;
3433;SDS011;1730;41.932;25.548;2023-03-31T00:26:18;10.50;;;4.40;;
3433;SDS011;1730;41.932;25.548;2023-03-31T00:28:43;5.30;;;4.90;;
3433;SDS011;1730;41.932;25.548;2023-03-31T00:31:09;6.73;;;3.77;;
3433;SDS011;1730;41.932;25.548;2023-03-31T00:33:34;4.90;;;3.50;;
3433;SDS011;1730;41.932;25.548;2023-03-31T00:36:00;4.33;;;3.80;;
3433;SDS011;1730;41.932;25.548;2023-03-31T00:38:26;4.23;;;3.83;;
3433;SDS011;1730;41.932;25.548;2023-03-31T00:40:54;3.80;;;3.60;;
3433;SDS011;1730;41.932;25.548;2023-03-31T00:43:25;3.13;;;2.80;;
3433;SDS011;1730;41.932;25.548;2023-03-31T00:45:53;3.00;;;2.80;;
3433;SDS011;1730;41.932;25.548;2023-03-31T00:48:24;4.30;;;3.70;;
3433;SDS011;1730;41.932;25.548;2023-03-31T00:50:55;3.90;;;2.83;;
3433;SDS011;1730;41.932;25.548;2023-03-31T00:53:24;4.17;;;3.63;;
3433;SDS011;1730;41.932;25.548;2023-03-31T00:55:54;3.97;;;3.60;;
3433;SDS011;1730;41.932;25.548;2023-03-31T00:58:23;3.97;;;3.67;;
3433;SDS011;1730;41.932;25.548;2023-03-31T01:00:52;3.43;;;3.23;;
3433;SDS011;1730;41.932;25.548;2023-03-31T01:03:22;4.00;;;3.63;;
3433;SDS011;1730;41.932;25.548;2023-03-31T01:05:49;7.73;;;6.70;;
3433;SDS011;1730;41.932;25.548;2023-03-31T01:08:19;7.80;;;7.13;;
3433;SDS011;1730;41.932;25.548;2023-03-31T01:10:51;6.80;;;6.10;;
3433;SDS011;1730;41.932;25.548;2023-03-31T01:13:18;10.40;;;6.57;;
3433;SDS011;1730;41.932;25.548;2023-03-31T01:15:45;11.83;;;9.33;;
3433;SDS011;1730;41.932;25.548;2023-03-31T01:18:11;14.93;;;7.20;;
3433;SDS011;1730;41.932;25.548;2023-03-31T01:43:39;6.07;;;5.47;;
3433;SDS011;1730;41.932;25.548;2023-03-31T01:57:11;14.53;;;8.57;;
3433;SDS011;1730;41.932;25.548;2023-03-31T01:59:57;11.43;;;7.73;;
3433;SDS011;1730;41.932;25.548;2023-03-31T02:02:36;14.23;;;7.30;;
3433;SDS011;1730;41.932;25.548;2023-03-31T02:05:13;10.00;;;7.03;;
3433;SDS011;1730;41.932;25.548;2023-03-31T02:07:47;7.70;;;6.63;;
3433;SDS011;1730;41.932;25.548;2023-03-31T02:10:17;9.10;;;6.30;;
3433;SDS011;1730;41.932;25.548;2023-03-31T02:12:45;6.67;;;5.63;;
3433;SDS011;1730;41.932;25.548;2023-03-31T02:15:13;6.10;;;5.50;;
3433;SDS011;1730;41.932;25.548;2023-03-31T02:17:46;7.00;;;5.63;;
3433;SDS011;1730;41.932;25.548;2023-03-31T02:20:16;7.47;;;6.10;;
3433;SDS011;1730;41.932;25.548;2023-03-31T02:22:46;7.17;;;6.47;;
3433;SDS011;1730;41.932;25.548;2023-03-31T02:25:18;6.47;;;5.87;;
3433;SDS011;1730;41.932;25.548;2023-03-31T02:27:52;9.03;;;6.17;;
3433;SDS011;1730;41.932;25.548;2023-03-31T02:30:24;6.83;;;6.20;;
3433;SDS011;1730;41.932;25.548;2023-03-31T02:32:54;7.17;;;6.47;;
3433;SDS011;1730;41.932;25.548;2023-03-31T02:35:20;8.00;;;6.43;;
3433;SDS011;1730;41.932;25.548;2023-03-31T02:37:47;8.80;;;6.40;;
3433;SDS011;1730;41.932;25.548;2023-03-31T02:40:19;8.10;;;7.33;;
3433;SDS011;1730;41.932;25.548;2023-03-31T02:42:45;12.03;;;8.23;;
3433;SDS011;1730;41.932;25.548;2023-03-31T02:48:02;10.43;;;7.10;;
3433;SDS011;1730;41.932;25.548;2023-03-31T02:50:31;12.97;;;6.37;;
3433;SDS011;1730;41.932;25.548;2023-03-31T02:53:09;8.40;;;6.23;;
3433;SDS011;1730;41.932;25.548;2023-03-31T03:16:00;9.43;;;7.33;;
3433;SDS011;1730;41.932;25.548;2023-03-31T03:18:13;9.17;;;7.33;;
3433;SDS011;1730;41.932;25.548;2023-03-31T03:20:41;9.87;;;7.60;;
3433;SDS011;1730;41.932;25.548;2023-03-31T03:23:12;9.57;;;7.80;;
3433;SDS011;1730;41.932;25.548;2023-03-31T03:25:38;11.20;;;7.70;;
3433;SDS011;1730;41.932;25.548;2023-03-31T03:28:04;10.63;;;7.07;;
3433;SDS011;1730;41.932;25.548;2023-03-31T03:30:30;8.17;;;6.80;;
3433;SDS011;1730;41.932;25.548;2023-03-31T03:32:55;7.10;;;6.40;;
3433;SDS011;1730;41.932;25.548;2023-03-31T03:35:22;9.07;;;6.53;;
3433;SDS011;1730;41.932;25.548;2023-03-31T03:37:48;10.50;;;7.40;;
3433;SDS011;1730;41.932;25.548;2023-03-31T03:40:14;12.00;;;9.27;;
3433;SDS011;1730;41.932;25.548;2023-03-31T03:42:39;10.73;;;8.67;;
3433;SDS011;1730;41.932;25.548;2023-03-31T03:45:05;7.60;;;6.87;;
3433;SDS011;1730;41.932;25.548;2023-03-31T03:47:31;7.53;;;6.57;;
3433;SDS011;1730;41.932;25.548;2023-03-31T03:49:57;6.80;;;6.00;;
3433;SDS011;1730;41.932;25.548;2023-03-31T03:52:23;8.90;;;5.77;;
3433;SDS011;1730;41.932;25.548;2023-03-31T03:54:48;7.27;;;6.40;;
3433;SDS011;1730;41.932;25.548;2023-03-31T03:57:14;6.33;;;5.77;;
3433;SDS011;1730;41.932;25.548;2023-03-31T03:59:40;16.20;;;8.73;;
3433;SDS011;1730;41.932;25.548;2023-03-31T04:02:06;14.27;;;8.13;;
3433;SDS011;1730;41.932;25.548;2023-03-31T04:04:31;15.00;;;9.83;;
3433;SDS011;1730;41.932;25.548;2023-03-31T04:06:57;16.40;;;8.67;;
3433;SDS011;1730;41.932;25.548;2023-03-31T04:09:22;15.50;;;10.87;;
3433;SDS011;1730;41.932;25.548;2023-03-31T04:11:48;16.53;;;11.33;;
3433;SDS011;1730;41.932;25.548;2023-03-31T04:14:13;16.03;;;11.23;;
3433;SDS011;1730;41.932;25.548;2023-03-31T04:16:39;11.00;;;8.73;;
3433;SDS011;1730;41.932;25.548;2023-03-31T04:19:04;11.40;;;8.90;;
3433;SDS011;1730;41.932;25.548;2023-03-31T04:21:31;16.30;;;11.57;;
3433;SDS011;1730;41.932;25.548;2023-03-31T04:23:59;16.37;;;11.20;;
3433;SDS011;1730;41.932;25.548;2023-03-31T04:26:32;11.97;;;8.87;;
3433;SDS011;1730;41.932;25.548;2023-03-31T04:29:08;11.80;;;8.20;;
3433;SDS011;1730;41.932;25.548;2023-03-31T04:31:38;12.07;;;8.90;;
3433;SDS011;1730;41.932;25.548;2023-03-31T04:34:07;12.73;;;8.70;;
3433;SDS011;1730;41.932;25.548;2023-03-31T04:36:41;12.93;;;8.70;;
3433;SDS011;1730;41.932;25.548;2023-03-31T04:39:15;10.40;;;7.87;;
3433;SDS011;1730;41.932;25.548;2023-03-31T04:41:42;8.57;;;7.50;;
3433;SDS011;1730;41.932;25.548;2023-03-31T04:44:08;12.70;;;7.20;;
3433;SDS011;1730;41.932;25.548;2023-03-31T04:46:34;12.20;;;9.23;;
3433;SDS011;1730;41.932;25.548;2023-03-31T04:49:00;12.60;;;9.50;;
3433;SDS011;1730;41.932;25.548;2023-03-31T04:51:26;18.83;;;9.83;;
3433;SDS011;1730;41.932;25.548;2023-03-31T04:53:52;14.60;;;10.33;;
3433;SDS011;1730;41.932;25.548;2023-03-31T04:56:18;15.10;;;9.40;;
3433;SDS011;1730;41.932;25.548;2023-03-31T04:58:44;12.17;;;9.30;;
3433;SDS011;1730;41.932;25.548;2023-03-31T05:01:09;15.97;;;9.33;;
3433;SDS011;1730;41.932;25.548;2023-03-31T05:03:37;10.97;;;8.80;;
3433;SDS011;1730;41.932;25.548;2023-03-31T05:06:03;18.33;;;9.13;;
3433;SDS011;1730;41.932;25.548;2023-03-31T05:08:30;10.37;;;7.07;;
3433;SDS011;1730;41.932;25.548;2023-03-31T05:10:55;14.13;;;9.10;;
3433;SDS011;1730;41.932;25.548;2023-03-31T05:13:21;10.73;;;8.50;;
3433;SDS011;1730;41.932;25.548;2023-03-31T05:15:47;10.67;;;8.57;;
3433;SDS011;1730;41.932;25.548;2023-03-31T05:18:16;17.00;;;9.40;;
3433;SDS011;1730;41.932;25.548;2023-03-31T05:20:42;14.43;;;9.63;;
3433;SDS011;1730;41.932;25.548;2023-03-31T05:23:08;14.53;;;8.77;;
3433;SDS011;1730;41.932;25.548;2023-03-31T05:25:34;12.80;;;8.53;;
3433;SDS011;1730;41.932;25.548;2023-03-31T05:28:00;19.10;;;8.30;;
3433;SDS011;1730;41.932;25.548;2023-03-31T05:30:26;7.70;;;7.00;;
3433;SDS011;1730;41.932;25.548;2023-03-31T05:32:53;8.37;;;7.50;;
3433;SDS011;1730;41.932;25.548;2023-03-31T05:35:19;6.53;;;5.93;;
3433;SDS011;1730;41.932;25.548;2023-03-31T05:37:47;8.27;;;6.63;;
3433;SDS011;1730;41.932;25.548;2023-03-31T05:40:13;6.87;;;6.20;;
3433;SDS011;1730;41.932;25.548;2023-03-31T05:42:40;10.73;;;6.20;;
3433;SDS011;1730;41.932;25.548;2023-03-31T05:45:06;13.90;;;7.83;;
3433;SDS011;1730;41.932;25.548;2023-03-31T05:47:32;12.93;;;7.33;;
3433;SDS011;1730;41.932;25.548;2023-03-31T05:49:57;9.87;;;7.33;;
3433;SDS011;1730;41.932;25.548;2023-03-31T05:52:23;21.97;;;8.90;;
3433;SDS011;1730;41.932;25.548;2023-03-31T05:54:49;14.70;;;9.00;;
3433;SDS011;1730;41.932;25.548;2023-03-31T05:57:14;16.17;;;9.40;;
3433;SDS011;1730;41.932;25.548;2023-03-31T05:59:40;13.77;;;9.70;;
3433;SDS011;1730;41.932;25.548;2023-03-31T06:02:07;11.73;;;9.73;;
3433;SDS011;1730;41.932;25.548;2023-03-31T06:04:37;11.07;;;9.23;;
3433;SDS011;1730;41.932;25.548;2023-03-31T06:07:03;14.93;;;9.30;;
3433;SDS011;1730;41.932;25.548;2023-03-31T06:09:30;14.27;;;8.53;;
3433;SDS011;1730;41.932;25.548;2023-03-31T06:11:55;25.17;;;9.20;;
3433;SDS011;1730;41.932;25.548;2023-03-31T06:14:21;15.43;;;9.67;;
3433;SDS011;1730;41.932;25.548;2023-03-31T06:16:47;12.20;;;8.80;;
3433;SDS011;1730;41.932;25.548;2023-03-31T06:19:13;9.60;;;8.40;;
3433;SDS011;1730;41.932;25.548;2023-03-31T06:21:39;9.60;;;8.00;;
3433;SDS011;1730;41.932;25.548;2023-03-31T06:24:05;11.07;;;9.77;;
3433;SDS011;1730;41.932;25.548;2023-03-31T06:26:32;19.73;;;10.37;;
3433;SDS011;1730;41.932;25.548;2023-03-31T06:28:58;15.10;;;9.80;;
3433;SDS011;1730;41.932;25.548;2023-03-31T06:31:23;11.03;;;7.83;;
3433;SDS011;1730;41.932;25.548;2023-03-31T06:33:49;12.33;;;9.10;;
3433;SDS011;1730;41.932;25.548;2023-03-31T06:36:16;18.73;;;9.03;;
3433;SDS011;1730;41.932;25.548;2023-03-31T06:38:43;10.83;;;8.83;;
3433;SDS011;1730;41.932;25.548;2023-03-31T06:41:10;12.73;;;10.33;;
3433;SDS011;1730;41.932;25.548;2023-03-31T06:43:37;16.03;;;10.90;;
3433;SDS011;1730;41.932;25.548;2023-03-31T06:46:03;23.97;;;10.60;;
3433;SDS011;1730;41.932;25.548;2023-03-31T06:48:30;19.20;;;11.33;;
3433;SDS011;1730;41.932;25.548;2023-03-31T06:50:57;12.90;;;11.47;;
3433;SDS011;1730;41.932;25.548;2023-03-31T06:53:24;17.50;;;10.80;;
3433;SDS011;1730;41.932;25.548;2023-03-31T06:55:49;21.13;;;13.20;;
3433;SDS011;1730;41.932;25.548;2023-03-31T06:58:15;15.63;;;12.50;;
3433;SDS011;1730;41.932;25.548;2023-03-31T07:00:40;15.90;;;11.27;;
3433;SDS011;1730;41.932;25.548;2023-03-31T07:03:06;21.00;;;11.17;;
3433;SDS011;1730;41.932;25.548;2023-03-31T07:05:33;19.20;;;9.50;;
3433;SDS011;1730;41.932;25.548;2023-03-31T07:07:59;16.03;;;9.60;;
3433;SDS011;1730;41.932;25.548;2023-03-31T07:10:26;18.60;;;11.30;;
3433;SDS011;1730;41.932;25.548;2023-03-31T07:12:54;11.10;;;9.40;;
3433;SDS011;1730;41.932;25.548;2023-03-31T07:15:20;20.77;;;10.80;;
3433;SDS011;1730;41.932;25.548;2023-03-31T07:17:46;20.83;;;11.30;;
3433;SDS011;1730;41.932;25.548;2023-03-31T07:20:15;20.80;;;12.77;;
3433;SDS011;1730;41.932;25.548;2023-03-31T07:22:46;13.50;;;10.93;;
3433;SDS011;1730;41.932;25.548;2023-03-31T07:25:14;10.60;;;9.50;;
3433;SDS011;1730;41.932;25.548;2023-03-31T07:27:41;10.20;;;9.27;;
3433;SDS011;1730;41.932;25.548;2023-03-31T07:30:11;13.50;;;9.90;;
3433;SDS011;1730;41.932;25.548;2023-03-31T07:32:38;12.40;;;8.93;;
3433;SDS011;1730;41.932;25.548;2023-03-31T07:35:05;12.40;;;9.37;;
3433;SDS011;1730;41.932;25.548;2023-03-31T07:37:35;15.30;;;10.67;;
3433;SDS011;1730;41.932;25.548;2023-03-31T07:40:05;19.80;;;12.70;;
3433;SDS011;1730;41.932;25.548;2023-03-31T07:42:33;25.87;;;17.47;;
3433;SDS011;1730;41.932;25.548;2023-03-31T07:45:00;31.27;;;19.97;;
3433;SDS011;1730;41.932;25.548;2023-03-31T07:47:26;25.93;;;19.80;;
3433;SDS011;1730;41.932;25.548;2023-03-31T07:49:52;26.80;;;20.10;;
3433;SDS011;1730;41.932;25.548;2023-03-31T07:52:18;29.67;;;20.80;;
3433;SDS011;1730;41.932;25.548;2023-03-31T07:54:47;26.10;;;16.40;;
3433;SDS011;1730;41.932;25.548;2023-03-31T07:57:12;25.90;;;16.60;;
3433;SDS011;1730;41.932;25.548;2023-03-31T07:59:38;16.67;;;12.03;;
3433;SDS011;1730;41.932;25.548;2023-03-31T08:02:03;13.63;;;11.70;;
3433;SDS011;1730;41.932;25.548;2023-03-31T08:04:29;16.13;;;12.23;;
3433;SDS011;1730;41.932;25.548;2023-03-31T08:06:54;23.83;;;17.53;;
3433;SDS011;1730;41.932;25.548;2023-03-31T08:09:20;35.13;;;17.40;;
3433;SDS011;1730;41.932;25.548;2023-03-31T08:11:46;13.73;;;10.70;;
3433;SDS011;1730;41.932;25.548;2023-03-31T08:14:12;17.67;;;14.10;;
3433;SDS011;1730;41.932;25.548;2023-03-31T08:16:38;14.47;;;10.20;;
3433;SDS011;1730;41.932;25.548;2023-03-31T08:19:03;14.43;;;12.30;;
3433;SDS011;1730;41.932;25.548;2023-03-31T08:21:29;12.23;;;8.87;;
3433;SDS011;1730;41.932;25.548;2023-03-31T08:23:54;17.33;;;9.87;;
3433;SDS011;1730;41.932;25.548;2023-03-31T08:26:20;10.00;;;7.97;;
3433;SDS011;1730;41.932;25.548;2023-03-31T08:28:48;13.77;;;10.00;;
3433;SDS011;1730;41.932;25.548;2023-03-31T08:31:14;15.60;;;8.97;;
3433;SDS011;1730;41.932;25.548;2023-03-31T08:33:41;9.80;;;8.67;;
3433;SDS011;1730;41.932;25.548;2023-03-31T08:36:07;9.23;;;8.33;;
3433;SDS011;1730;41.932;25.548;2023-03-31T08:38:36;15.30;;;10.23;;
3433;SDS011;1730;41.932;25.548;2023-03-31T08:41:04;8.10;;;7.40;;
3433;SDS011;1730;41.932;25.548;2023-03-31T08:43:32;14.50;;;8.30;;
3433;SDS011;1730;41.932;25.548;2023-03-31T08:46:02;15.30;;;7.77;;
3433;SDS011;1730;41.932;25.548;2023-03-31T08:51:22;9.50;;;7.50;;
3433;SDS011;1730;41.932;25.548;2023-03-31T08:56:40;9.80;;;8.80;;
3433;SDS011;1730;41.932;25.548;2023-03-31T08:59:28;8.87;;;7.93;;
3433;SDS011;1730;41.932;25.548;2023-03-31T09:02:42;9.93;;;8.57;;
3433;SDS011;1730;41.932;25.548;2023-03-31T09:10:21;16.43;;;10.40;;
3433;SDS011;1730;41.932;25.548;2023-03-31T09:15:24;5.23;;;4.83;;
3433;SDS011;1730;41.932;25.548;2023-03-31T09:17:52;7.40;;;6.00;;
3433;SDS011;1730;41.932;25.548;2023-03-31T09:20:36;11.70;;;6.60;;
3433;SDS011;1730;41.932;25.548;2023-03-31T09:25:51;8.13;;;6.30;;
3433;SDS011;1730;41.932;25.548;2023-03-31T09:28:22;7.37;;;4.30;;
3433;SDS011;1730;41.932;25.548;2023-03-31T09:30:59;7.17;;;4.20;;
3433;SDS011;1730;41.932;25.548;2023-03-31T09:33:28;4.83;;;4.33;;
3433;SDS011;1730;41.932;25.548;2023-03-31T09:36:00;4.57;;;4.00;;
3433;SDS011;1730;41.932;25.548;2023-03-31T09:38:32;3.70;;;3.50;;
3433;SDS011;1730;41.932;25.548;2023-03-31T09:41:01;10.83;;;6.53;;
3433;SDS011;1730;41.932;25.548;2023-03-31T09:43:30;3.87;;;3.00;;
3433;SDS011;1730;41.932;25.548;2023-03-31T09:46:00;3.73;;;3.30;;
3433;SDS011;1730;41.932;25.548;2023-03-31T09:48:28;6.37;;;3.20;;
3433;SDS011;1730;41.932;25.548;2023-03-31T09:51:06;2.80;;;2.60;;
3433;SDS011;1730;41.932;25.548;2023-03-31T09:54:04;4.00;;;3.60;;
3433;SDS011;1730;41.932;25.548;2023-03-31T09:57:46;3.83;;;3.30;;
3433;SDS011;1730;41.932;25.548;2023-03-31T10:02:38;8.07;;;2.93;;
3433;SDS011;1730;41.932;25.548;2023-03-31T10:05:33;3.20;;;2.67;;
3433;SDS011;1730;41.932;25.548;2023-03-31T10:10:45;3.73;;;3.00;;
3433;SDS011;1730;41.932;25.548;2023-03-31T10:13:23;3.00;;;2.70;;
3433;SDS011;1730;41.932;25.548;2023-03-31T10:15:54;4.70;;;4.30;;
3433;SDS011;1730;41.932;25.548;2023-03-31T10:18:34;2.93;;;2.73;;
3433;SDS011;1730;41.932;25.548;2023-03-31T10:21:03;3.90;;;3.60;;
3433;SDS011;1730;41.932;25.548;2023-03-31T10:23:31;3.60;;;2.53;;
3433;SDS011;1730;41.932;25.548;2023-03-31T10:25:58;8.60;;;3.80;;
3433;SDS011;1730;41.932;25.548;2023-03-31T10:28:25;3.53;;;3.23;;
3433;SDS011;1730;41.932;25.548;2023-03-31T10:30:51;3.77;;;3.30;;
3433;SDS011;1730;41.932;25.548;2023-03-31T10:33:23;6.23;;;2.97;;
3433;SDS011;1730;41.932;25.548;2023-03-31T10:35:56;2.63;;;2.43;;
3433;SDS011;1730;41.932;25.548;2023-03-31T10:38:28;2.90;;;2.40;;
3433;SDS011;1730;41.932;25.548;2023-03-31T10:40:56;3.50;;;2.53;;
3433;SDS011;1730;41.932;25.548;2023-03-31T10:43:24;2.63;;;2.43;;
3433;SDS011;1730;41.932;25.548;2023-03-31T10:45:57;4.23;;;2.20;;
3433;SDS011;1730;41.932;25.548;2023-03-31T10:48:31;4.40;;;2.73;;
3433;SDS011;1730;41.932;25.548;2023-03-31T10:53:50;2.97;;;2.50;;
3433;SDS011;1730;41.932;25.548;2023-03-31T10:56:22;6.57;;;2.63;;
3433;SDS011;1730;41.932;25.548;2023-03-31T11:13:32;6.03;;;3.40;;
3433;SDS011;1730;41.932;25.548;2023-03-31T11:21:27;4.17;;;3.30;;
3433;SDS011;1730;41.932;25.548;2023-03-31T11:24:06;2.60;;;2.37;;
3433;SDS011;1730;41.932;25.548;2023-03-31T11:31:58;4.20;;;2.70;;
3433;SDS011;1730;41.932;25.548;2023-03-31T11:43:25;3.60;;;3.30;;
3433;SDS011;1730;41.932;25.548;2023-03-31T11:48:40;6.03;;;2.97;;
3433;SDS011;1730;41.932;25.548;2023-03-31T11:51:16;2.80;;;2.47;;
3433;SDS011;1730;41.932;25.548;2023-03-31T11:53:47;5.10;;;2.87;;
3433;SDS011;1730;41.932;25.548;2023-03-31T11:56:16;3.23;;;2.80;;
3433;SDS011;1730;41.932;25.548;2023-03-31T11:58:53;3.97;;;2.60;;
3433;SDS011;1730;41.932;25.548;2023-03-31T12:01:24;3.03;;;2.73;;
3433;SDS011;1730;41.932;25.548;2023-03-31T12:04:09;4.60;;;2.60;;
3433;SDS011;1730;41.932;25.548;2023-03-31T12:15:29;2.70;;;2.37;;
3433;SDS011;1730;41.932;25.548;2023-03-31T12:18:21;10.70;;;2.50;;
3433;SDS011;1730;41.932;25.548;2023-03-31T12:20:54;6.03;;;2.93;;
3433;SDS011;1730;41.932;25.548;2023-03-31T12:23:22;3.80;;;2.60;;
3433;SDS011;1730;41.932;25.548;2023-03-31T12:25:54;6.80;;;2.60;;
3433;SDS011;1730;41.932;25.548;2023-03-31T12:28:22;5.30;;;2.77;;
3433;SDS011;1730;41.932;25.548;2023-03-31T12:30:51;4.23;;;2.90;;
3433;SDS011;1730;41.932;25.548;2023-03-31T12:38:41;4.13;;;2.40;;
3433;SDS011;1730;41.932;25.548;2023-03-31T12:50:12;4.20;;;2.60;;
3433;SDS011;1730;41.932;25.548;2023-03-31T12:56:03;6.57;;;3.33;;
3433;SDS011;1730;41.932;25.548;2023-03-31T13:01:11;6.23;;;2.73;;
3433;SDS011;1730;41.932;25.548;2023-03-31T13:04:21;4.80;;;3.23;;
3433;SDS011;1730;41.932;25.548;2023-03-31T13:11:39;3.77;;;3.47;;
3433;SDS011;1730;41.932;25.548;2023-03-31T13:17:09;5.73;;;3.87;;
3433;SDS011;1730;41.932;25.548;2023-03-31T13:19:46;5.27;;;4.53;;
3433;SDS011;1730;41.932;25.548;2023-03-31T13:22:33;4.90;;;4.50;;
3433;SDS011;1730;41.932;25.548;2023-03-31T13:27:53;5.53;;;4.70;;
3433;SDS011;1730;41.932;25.548;2023-03-31T13:30:53;6.33;;;4.23;;
3433;SDS011;1730;41.932;25.548;2023-03-31T13:35:49;7.43;;;3.10;;
3433;SDS011;1730;41.932;25.548;2023-03-31T13:38:22;3.60;;;2.87;;
3433;SDS011;1730;41.932;25.548;2023-03-31T13:40:54;10.23;;;6.23;;
3433;SDS011;1730;41.932;25.548;2023-03-31T13:54:57;3.33;;;2.33;;
3433;SDS011;1730;41.932;25.548;2023-03-31T13:58:25;5.00;;;2.60;;
3433;SDS011;1730;41.932;25.548;2023-03-31T14:03:53;7.20;;;3.00;;
3433;SDS011;1730;41.932;25.548;2023-03-31T14:09:24;2.93;;;2.70;;
3433;SDS011;1730;41.932;25.548;2023-03-31T14:11:53;4.03;;;3.00;;
3433;SDS011;1730;41.932;25.548;2023-03-31T14:14:20;7.00;;;2.90;;
3433;SDS011;1730;41.932;25.548;2023-03-31T14:16:58;3.40;;;2.60;;
3433;SDS011;1730;41.932;25.548;2023-03-31T14:19:30;8.50;;;3.40;;
3433;SDS011;1730;41.932;25.548;2023-03-31T14:27:59;3.90;;;2.63;;
3433;SDS011;1730;41.932;25.548;2023-03-31T14:30:32;4.70;;;2.57;;
3433;SDS011;1730;41.932;25.548;2023-03-31T14:38:44;3.80;;;3.50;;
3433;SDS011;1730;41.932;25.548;2023-03-31T14:41:19;7.90;;;3.33;;
3433;SDS011;1730;41.932;25.548;2023-03-31T14:43:54;3.83;;;2.87;;
3433;SDS011;1730;41.932;25.548;2023-03-31T14:46:22;4.30;;;3.50;;
3433;SDS011;1730;41.932;25.548;2023-03-31T14:48:48;5.30;;;3.40;;
3433;SDS011;1730;41.932;25.548;2023-03-31T14:51:16;12.83;;;5.77;;
3433;SDS011;1730;41.932;25.548;2023-03-31T14:53:44;12.60;;;7.90;;
3433;SDS011;1730;41.932;25.548;2023-03-31T14:56:11;10.60;;;6.53;;
3433;SDS011;1730;41.932;25.548;2023-03-31T14:58:41;3.70;;;3.40;;
3433;SDS011;1730;41.932;25.548;2023-03-31T15:01:11;3.63;;;3.13;;
3433;SDS011;1730;41.932;25.548;2023-03-31T15:03:41;7.70;;;3.10;;
3433;SDS011;1730;41.932;25.548;2023-03-31T15:06:08;5.00;;;2.20;;
3433;SDS011;1730;41.932;25.548;2023-03-31T15:08:35;13.90;;;9.90;;
3433;SDS011;1730;41.932;25.548;2023-03-31T15:11:07;4.60;;;4.30;;
3433;SDS011;1730;41.932;25.548;2023-03-31T15:13:44;4.60;;;4.20;;
3433;SDS011;1730;41.932;25.548;2023-03-31T15:18:53;6.37;;;5.47;;
3433;SDS011;1730;41.932;25.548;2023-03-31T15:21:21;11.27;;;5.10;;
3433;SDS011;1730;41.932;25.548;2023-03-31T15:23:52;3.77;;;3.47;;
3433;SDS011;1730;41.932;25.548;2023-03-31T15:26:22;3.87;;;2.30;;
3433;SDS011;1730;41.932;25.548;2023-03-31T15:28:57;10.10;;;5.40;;
3433;SDS011;1730;41.932;25.548;2023-03-31T15:31:28;4.20;;;3.17;;
3433;SDS011;1730;41.932;25.548;2023-03-31T15:33:54;18.27;;;4.00;;
3433;SDS011;1730;41.932;25.548;2023-03-31T15:36:20;5.90;;;3.70;;
3433;SDS011;1730;41.932;25.548;2023-03-31T15:38:46;4.43;;;3.20;;
3433;SDS011;1730;41.932;25.548;2023-03-31T15:41:21;2.93;;;2.63;;
3433;SDS011;1730;41.932;25.548;2023-03-31T15:47:10;2.80;;;2.60;;
3433;SDS011;1730;41.932;25.548;2023-03-31T15:49:37;3.10;;;2.70;;
3433;SDS011;1730;41.932;25.548;2023-03-31T15:52:19;6.50;;;3.47;;
3433;SDS011;1730;41.932;25.548;2023-03-31T15:54:46;4.50;;;3.20;;
3433;SDS011;1730;41.932;25.548;2023-03-31T15:57:13;5.87;;;4.20;;
3433;SDS011;1730;41.932;25.548;2023-03-31T15:59:45;5.27;;;3.20;;
3433;SDS011;1730;41.932;25.548;2023-03-31T16:02:15;3.30;;;2.80;;
3433;SDS011;1730;41.932;25.548;2023-03-31T16:04:45;2.50;;;2.30;;
3433;SDS011;1730;41.932;25.548;2023-03-31T16:07:14;4.73;;;3.67;;
3433;SDS011;1730;41.932;25.548;2023-03-31T16:14:44;20.53;;;4.33;;
3433;SDS011;1730;41.932;25.548;2023-03-31T16:20:20;5.37;;;4.00;;
3433;SDS011;1730;41.932;25.548;2023-03-31T16:22:54;3.87;;;3.30;;
3433;SDS011;1730;41.932;25.548;2023-03-31T16:25:25;4.70;;;3.20;;
3433;SDS011;1730;41.932;25.548;2023-03-31T16:27:58;3.77;;;3.47;;
3433;SDS011;1730;41.932;25.548;2023-03-31T16:30:39;5.63;;;5.20;;
3433;SDS011;1730;41.932;25.548;2023-03-31T16:33:07;12.23;;;4.90;;
3433;SDS011;1730;41.932;25.548;2023-03-31T16:35:36;7.77;;;6.17;;
3433;SDS011;1730;41.932;25.548;2023-03-31T16:38:07;7.97;;;6.00;;
3433;SDS011;1730;41.932;25.548;2023-03-31T16:40:35;9.83;;;5.77;;
3433;SDS011;1730;41.932;25.548;2023-03-31T16:43:20;7.60;;;5.03;;
3433;SDS011;1730;41.932;25.548;2023-03-31T16:45:55;10.40;;;4.63;;
3433;SDS011;1730;41.932;25.548;2023-03-31T16:48:22;4.67;;;4.37;;
3433;SDS011;1730;41.932;25.548;2023-03-31T16:50:56;13.80;;;4.20;;
3433;SDS011;1730;41.932;25.548;2023-03-31T16:53:26;6.13;;;4.77;;
3433;SDS011;1730;41.932;25.548;2023-03-31T16:55:58;7.40;;;4.47;;
3433;SDS011;1730;41.932;25.548;2023-03-31T16:58:24;7.07;;;5.10;;
3433;SDS011;1730;41.932;25.548;2023-03-31T17:00:50;8.40;;;4.57;;
3433;SDS011;1730;41.932;25.548;2023-03-31T17:03:16;4.67;;;4.10;;
3433;SDS011;1730;41.932;25.548;2023-03-31T17:05:45;4.73;;;3.87;;
3433;SDS011;1730;41.932;25.548;2023-03-31T17:08:12;4.10;;;3.70;;
3433;SDS011;1730;41.932;25.548;2023-03-31T17:10:39;3.13;;;2.83;;
3433;SDS011;1730;41.932;25.548;2023-03-31T17:13:05;4.93;;;3.57;;
3433;SDS011;1730;41.932;25.548;2023-03-31T17:15:31;5.27;;;3.97;;
3433;SDS011;1730;41.932;25.548;2023-03-31T17:18:00;4.43;;;4.13;;
3433;SDS011;1730;41.932;25.548;2023-03-31T17:20:28;5.00;;;4.50;;
3433;SDS011;1730;41.932;25.548;2023-03-31T17:22:54;5.20;;;4.60;;
3433;SDS011;1730;41.932;25.548;2023-03-31T17:25:20;8.43;;;5.00;;
3433;SDS011;1730;41.932;25.548;2023-03-31T17:27:46;7.40;;;4.10;;
3433;SDS011;1730;41.932;25.548;2023-03-31T17:30:12;4.10;;;3.77;;
3433;SDS011;1730;41.932;25.548;2023-03-31T17:32:37;9.10;;;3.80;;
3433;SDS011;1730;41.932;25.548;2023-03-31T17:35:03;4.73;;;3.67;;
3433;SDS011;1730;41.932;25.548;2023-03-31T17:37:31;4.50;;;3.07;;
3433;SDS011;1730;41.932;25.548;2023-03-31T17:39:57;6.23;;;4.20;;
3433;SDS011;1730;41.932;25.548;2023-03-31T17:42:22;6.70;;;5.33;;
3433;SDS011;1730;41.932;25.548;2023-03-31T17:44:49;11.10;;;7.57;;
3433;SDS011;1730;41.932;25.548;2023-03-31T17:47:16;6.50;;;4.97;;
3433;SDS011;1730;41.932;25.548;2023-03-31T17:49:42;11.00;;;7.30;;
3433;SDS011;1730;41.932;25.548;2023-03-31T17:52:08;6.27;;;5.67;;
3433;SDS011;1730;41.932;25.548;2023-03-31T17:54:34;8.60;;;5.70;;
3433;SDS011;1730;41.932;25.548;2023-03-31T17:57:01;8.23;;;6.07;;
3433;SDS011;1730;41.932;25.548;2023-03-31T17:59:28;11.70;;;7.70;;
3433;SDS011;1730;41.932;25.548;2023-03-31T18:01:53;6.53;;;5.93;;
3433;SDS011;1730;41.932;25.548;2023-03-31T18:04:19;7.70;;;6.90;;
3433;SDS011;1730;41.932;25.548;2023-03-31T18:06:45;8.50;;;6.27;;
3433;SDS011;1730;41.932;25.548;2023-03-31T18:09:13;6.83;;;6.00;;
3433;SDS011;1730;41.932;25.548;2023-03-31T18:11:39;8.40;;;5.90;;
3433;SDS011;1730;41.932;25.548;2023-03-31T18:14:05;6.03;;;5.50;;
3433;SDS011;1730;41.932;25.548;2023-03-31T18:16:33;4.73;;;4.33;;
3433;SDS011;1730;41.932;25.548;2023-03-31T18:18:59;8.90;;;4.53;;
3433;SDS011;1730;41.932;25.548;2023-03-31T18:21:25;3.77;;;3.47;;
3433;SDS011;1730;41.932;25.548;2023-03-31T18:23:51;5.23;;;4.67;;
3433;SDS011;1730;41.932;25.548;2023-03-31T18:26:19;4.17;;;3.80;;
3433;SDS011;1730;41.932;25.548;2023-03-31T18:28:46;4.63;;;3.30;;
3433;SDS011;1730;41.932;25.548;2023-03-31T18:31:12;4.50;;;3.77;;
3433;SDS011;1730;41.932;25.548;2023-03-31T18:33:38;5.93;;;4.17;;